sensor_id;sensor_type;location;lat;lon;timestamp;temperature;humidity
20057;DHT22;10189;49.546;7.906;2023-07-13T00:02:24;13.30;80.10
20057;DHT22;10189;49.546;7.906;2023-07-13T00:04:52;13.30;80.40
20057;DHT22;10189;49.546;7.906;2023-07-13T00:07:18;13.20;81.10
20057;DHT22;10189;49.546;7.906;2023-07-13T00:09:47;13.20;81.10
20057;DHT22;10189;49.546;7.906;2023-07-13T00:12:25;13.20;81.20
20057;DHT22;10189;49.546;7.906;2023-07-13T00:14:55;13.00;81.50
20057;DHT22;10189;49.546;7.906;2023-07-13T00:17:26;13.00;81.30
20057;DHT22;10189;49.546;7.906;2023-07-13T00:19:54;12.90;81.40
20057;DHT22;10189;49.546;7.906;2023-07-13T00:22:22;12.80;81.60
20057;DHT22;10189;49.546;7.906;2023-07-13T00:24:53;12.80;82.00
20057;DHT22;10189;49.546;7.906;2023-07-13T00:27:22;12.70;82.40
20057;DHT22;10189;49.546;7.906;2023-07-13T00:29:49;12.70;82.50
20057;DHT22;10189;49.546;7.906;2023-07-13T00:32:15;12.60;83.00
20057;DHT22;10189;49.546;7.906;2023-07-13T00:34:40;12.60;83.20
20057;DHT22;10189;49.546;7.906;2023-07-13T00:37:07;12.60;83.70
20057;DHT22;10189;49.546;7.906;2023-07-13T00:39:35;12.60;84.20
20057;DHT22;10189;49.546;7.906;2023-07-13T00:42:02;12.50;84.30
20057;DHT22;10189;49.546;7.906;2023-07-13T00:44:28;12.50;84.70
20057;DHT22;10189;49.546;7.906;2023-07-13T00:46:54;12.40;84.90
20057;DHT22;10189;49.546;7.906;2023-07-13T00:49:25;12.40;85.20
20057;DHT22;10189;49.546;7.906;2023-07-13T00:51:58;12.40;85.50
20057;DHT22;10189;49.546;7.906;2023-07-13T00:54:35;12.30;86.00
20057;DHT22;10189;49.546;7.906;2023-07-13T00:57:07;12.30;86.10
20057;DHT22;10189;49.546;7.906;2023-07-13T00:59:35;12.20;86.30
20057;DHT22;10189;49.546;7.906;2023-07-13T01:02:04;12.20;86.20
20057;DHT22;10189;49.546;7.906;2023-07-13T01:04:30;12.10;86.30
20057;DHT22;10189;49.546;7.906;2023-07-13T01:06:57;12.10;86.30
20057;DHT22;10189;49.546;7.906;2023-07-13T01:09:23;12.10;86.90
20057;DHT22;10189;49.546;7.906;2023-07-13T01:11:52;12.10;87.30
20057;DHT22;10189;49.546;7.906;2023-07-13T01:14:18;12.00;87.30
20057;DHT22;10189;49.546;7.906;2023-07-13T01:16:46;12.00;87.40
20057;DHT22;10189;49.546;7.906;2023-07-13T01:22:13;11.90;87.60
20057;DHT22;10189;49.546;7.906;2023-07-13T01:24:43;11.80;88.10
20057;DHT22;10189;49.546;7.906;2023-07-13T01:27:16;11.80;88.00
20057;DHT22;10189;49.546;7.906;2023-07-13T01:29:46;11.80;87.50
20057;DHT22;10189;49.546;7.906;2023-07-13T01:32:23;11.70;87.80
20057;DHT22;10189;49.546;7.906;2023-07-13T01:34:54;11.70;87.80
20057;DHT22;10189;49.546;7.906;2023-07-13T01:37:20;11.60;87.90
20057;DHT22;10189;49.546;7.906;2023-07-13T01:39:47;11.60;87.70
20057;DHT22;10189;49.546;7.906;2023-07-13T01:42:13;11.60;87.90
20057;DHT22;10189;49.546;7.906;2023-07-13T01:44:40;11.50;88.30
20057;DHT22;10189;49.546;7.906;2023-07-13T01:47:07;11.50;88.60
20057;DHT22;10189;49.546;7.906;2023-07-13T01:49:33;11.40;88.70
20057;DHT22;10189;49.546;7.906;2023-07-13T01:51:59;11.40;89.20
20057;DHT22;10189;49.546;7.906;2023-07-13T01:54:24;11.40;89.50
20057;DHT22;10189;49.546;7.906;2023-07-13T01:56:50;11.30;89.70
20057;DHT22;10189;49.546;7.906;2023-07-13T01:59:16;11.40;89.80
20057;DHT22;10189;49.546;7.906;2023-07-13T02:01:42;11.30;90.10
20057;DHT22;10189;49.546;7.906;2023-07-13T02:04:08;11.30;90.30
20057;DHT22;10189;49.546;7.906;2023-07-13T02:06:34;11.30;90.60
20057;DHT22;10189;49.546;7.906;2023-07-13T02:08:59;11.30;90.80
20057;DHT22;10189;49.546;7.906;2023-07-13T02:11:26;11.30;90.90
20057;DHT22;10189;49.546;7.906;2023-07-13T02:13:59;11.40;90.60
20057;DHT22;10189;49.546;7.906;2023-07-13T02:16:27;11.30;90.60
20057;DHT22;10189;49.546;7.906;2023-07-13T02:18:54;11.30;90.50
20057;DHT22;10189;49.546;7.906;2023-07-13T02:21:21;11.20;90.60
20057;DHT22;10189;49.546;7.906;2023-07-13T02:23:51;11.20;90.80
20057;DHT22;10189;49.546;7.906;2023-07-13T02:26:18;11.20;90.90
20057;DHT22;10189;49.546;7.906;2023-07-13T02:28:44;11.20;91.20
20057;DHT22;10189;49.546;7.906;2023-07-13T02:31:14;11.10;91.30
20057;DHT22;10189;49.546;7.906;2023-07-13T02:33:41;11.10;91.50
20057;DHT22;10189;49.546;7.906;2023-07-13T02:36:07;11.00;91.60
20057;DHT22;10189;49.546;7.906;2023-07-13T02:38:34;11.00;91.90
20057;DHT22;10189;49.546;7.906;2023-07-13T02:41:06;11.00;91.80
20057;DHT22;10189;49.546;7.906;2023-07-13T02:43:33;11.00;92.00
20057;DHT22;10189;49.546;7.906;2023-07-13T02:45:59;11.00;92.20
20057;DHT22;10189;49.546;7.906;2023-07-13T02:48:36;11.00;92.60
20057;DHT22;10189;49.546;7.906;2023-07-13T02:51:03;11.10;92.80
20057;DHT22;10189;49.546;7.906;2023-07-13T02:53:30;11.20;92.80
20057;DHT22;10189;49.546;7.906;2023-07-13T02:55:56;11.20;92.80
20057;DHT22;10189;49.546;7.906;2023-07-13T02:58:22;11.30;92.80
20057;DHT22;10189;49.546;7.906;2023-07-13T03:00:48;11.40;92.70
20057;DHT22;10189;49.546;7.906;2023-07-13T03:03:17;11.40;92.70
20057;DHT22;10189;49.546;7.906;2023-07-13T03:05:44;11.60;92.60
20057;DHT22;10189;49.546;7.906;2023-07-13T03:08:17;11.70;92.40
20057;DHT22;10189;49.546;7.906;2023-07-13T03:10:44;11.80;91.90
20057;DHT22;10189;49.546;7.906;2023-07-13T03:13:11;11.80;91.40
20057;DHT22;10189;49.546;7.906;2023-07-13T03:15:37;11.90;91.20
20057;DHT22;10189;49.546;7.906;2023-07-13T03:18:03;11.90;91.50
20057;DHT22;10189;49.546;7.906;2023-07-13T03:20:33;12.00;91.00
20057;DHT22;10189;49.546;7.906;2023-07-13T03:23:00;11.90;91.20
20057;DHT22;10189;49.546;7.906;2023-07-13T03:25:27;11.90;91.30
20057;DHT22;10189;49.546;7.906;2023-07-13T03:27:53;11.90;91.20
20057;DHT22;10189;49.546;7.906;2023-07-13T03:30:20;11.90;91.30
20057;DHT22;10189;49.546;7.906;2023-07-13T03:32:46;12.00;91.00
20057;DHT22;10189;49.546;7.906;2023-07-13T03:35:12;12.10;90.70
20057;DHT22;10189;49.546;7.906;2023-07-13T03:37:38;12.10;90.40
20057;DHT22;10189;49.546;7.906;2023-07-13T03:40:10;12.10;90.50
20057;DHT22;10189;49.546;7.906;2023-07-13T03:42:36;12.20;89.80
20057;DHT22;10189;49.546;7.906;2023-07-13T03:45:02;12.20;89.70
20057;DHT22;10189;49.546;7.906;2023-07-13T03:47:31;12.20;90.00
20057;DHT22;10189;49.546;7.906;2023-07-13T03:49:57;12.20;89.90
20057;DHT22;10189;49.546;7.906;2023-07-13T03:52:23;12.20;89.80
20057;DHT22;10189;49.546;7.906;2023-07-13T03:54:49;12.20;89.50
20057;DHT22;10189;49.546;7.906;2023-07-13T03:57:16;12.20;89.20
20057;DHT22;10189;49.546;7.906;2023-07-13T03:59:42;12.30;89.10
20057;DHT22;10189;49.546;7.906;2023-07-13T04:02:09;12.30;88.60
20057;DHT22;10189;49.546;7.906;2023-07-13T04:04:35;12.30;88.50
20057;DHT22;10189;49.546;7.906;2023-07-13T04:07:01;12.20;88.00
20057;DHT22;10189;49.546;7.906;2023-07-13T04:09:27;12.20;87.90
20057;DHT22;10189;49.546;7.906;2023-07-13T04:11:53;12.10;88.30
20057;DHT22;10189;49.546;7.906;2023-07-13T04:14:19;12.10;88.40
20057;DHT22;10189;49.546;7.906;2023-07-13T04:16:46;12.10;88.80
20057;DHT22;10189;49.546;7.906;2023-07-13T04:19:13;12.20;89.20
20057;DHT22;10189;49.546;7.906;2023-07-13T04:21:39;12.20;88.70
20057;DHT22;10189;49.546;7.906;2023-07-13T04:24:05;12.10;88.80
20057;DHT22;10189;49.546;7.906;2023-07-13T04:26:31;12.20;88.90
20057;DHT22;10189;49.546;7.906;2023-07-13T04:28:57;12.20;88.90
20057;DHT22;10189;49.546;7.906;2023-07-13T04:31:23;12.20;88.70
20057;DHT22;10189;49.546;7.906;2023-07-13T04:33:49;12.20;88.70
20057;DHT22;10189;49.546;7.906;2023-07-13T04:36:16;12.20;88.50
20057;DHT22;10189;49.546;7.906;2023-07-13T04:38:42;12.30;88.20
20057;DHT22;10189;49.546;7.906;2023-07-13T04:41:08;12.30;87.70
20057;DHT22;10189;49.546;7.906;2023-07-13T04:43:35;12.40;87.60
20057;DHT22;10189;49.546;7.906;2023-07-13T04:46:09;12.50;87.00
20057;DHT22;10189;49.546;7.906;2023-07-13T04:48:37;12.50;86.30
20057;DHT22;10189;49.546;7.906;2023-07-13T04:51:04;12.70;86.20
20057;DHT22;10189;49.546;7.906;2023-07-13T04:53:31;12.80;86.00
20057;DHT22;10189;49.546;7.906;2023-07-13T04:55:58;13.00;84.50
20057;DHT22;10189;49.546;7.906;2023-07-13T04:58:24;13.10;83.70
20057;DHT22;10189;49.546;7.906;2023-07-13T05:00:51;13.30;83.70
20057;DHT22;10189;49.546;7.906;2023-07-13T05:03:17;13.50;83.30
20057;DHT22;10189;49.546;7.906;2023-07-13T05:05:43;13.80;83.10
20057;DHT22;10189;49.546;7.906;2023-07-13T05:08:09;14.10;82.20
20057;DHT22;10189;49.546;7.906;2023-07-13T05:10:35;14.30;81.20
20057;DHT22;10189;49.546;7.906;2023-07-13T05:13:01;14.40;81.20
20057;DHT22;10189;49.546;7.906;2023-07-13T05:15:28;14.50;81.20
20057;DHT22;10189;49.546;7.906;2023-07-13T05:17:54;14.60;80.20
20057;DHT22;10189;49.546;7.906;2023-07-13T05:20:20;14.60;79.30
20057;DHT22;10189;49.546;7.906;2023-07-13T05:22:46;14.60;79.40
20057;DHT22;10189;49.546;7.906;2023-07-13T05:25:16;14.50;79.80
20057;DHT22;10189;49.546;7.906;2023-07-13T05:27:42;14.80;80.30
20057;DHT22;10189;49.546;7.906;2023-07-13T05:30:08;15.00;79.40
20057;DHT22;10189;49.546;7.906;2023-07-13T05:32:36;15.20;78.00
20057;DHT22;10189;49.546;7.906;2023-07-13T05:35:02;15.40;78.00
20057;DHT22;10189;49.546;7.906;2023-07-13T05:37:28;15.60;77.80
20057;DHT22;10189;49.546;7.906;2023-07-13T05:39:54;15.80;76.50
20057;DHT22;10189;49.546;7.906;2023-07-13T05:42:20;15.90;75.80
20057;DHT22;10189;49.546;7.906;2023-07-13T05:44:46;15.90;75.50
20057;DHT22;10189;49.546;7.906;2023-07-13T05:47:11;16.10;75.10
20057;DHT22;10189;49.546;7.906;2023-07-13T05:49:39;16.30;75.00
20057;DHT22;10189;49.546;7.906;2023-07-13T05:52:05;16.30;74.30
20057;DHT22;10189;49.546;7.906;2023-07-13T05:54:31;16.20;73.70
20057;DHT22;10189;49.546;7.906;2023-07-13T05:56:57;16.20;74.20
20057;DHT22;10189;49.546;7.906;2023-07-13T05:59:23;16.20;75.40
20057;DHT22;10189;49.546;7.906;2023-07-13T06:01:49;16.40;75.30
20057;DHT22;10189;49.546;7.906;2023-07-13T06:04:18;16.80;76.40
20057;DHT22;10189;49.546;7.906;2023-07-13T06:06:44;17.10;73.90
20057;DHT22;10189;49.546;7.906;2023-07-13T06:09:10;17.40;72.30
20057;DHT22;10189;49.546;7.906;2023-07-13T06:11:36;17.60;71.10
20057;DHT22;10189;49.546;7.906;2023-07-13T06:14:02;17.70;70.80
20057;DHT22;10189;49.546;7.906;2023-07-13T06:16:29;17.80;70.60
20057;DHT22;10189;49.546;7.906;2023-07-13T06:18:55;18.00;70.50
20057;DHT22;10189;49.546;7.906;2023-07-13T06:21:22;18.30;67.50
20057;DHT22;10189;49.546;7.906;2023-07-13T06:23:50;18.60;61.80
20057;DHT22;10189;49.546;7.906;2023-07-13T06:26:20;18.90;61.30
20057;DHT22;10189;49.546;7.906;2023-07-13T06:28:46;19.20;59.30
20057;DHT22;10189;49.546;7.906;2023-07-13T06:31:13;19.30;57.30
20057;DHT22;10189;49.546;7.906;2023-07-13T06:33:40;19.10;57.40
20057;DHT22;10189;49.546;7.906;2023-07-13T06:36:07;19.00;57.10
20057;DHT22;10189;49.546;7.906;2023-07-13T06:38:34;18.80;58.00
20057;DHT22;10189;49.546;7.906;2023-07-13T06:41:00;18.80;58.80
20057;DHT22;10189;49.546;7.906;2023-07-13T06:43:26;18.90;59.80
20057;DHT22;10189;49.546;7.906;2023-07-13T06:45:55;19.10;60.40
20057;DHT22;10189;49.546;7.906;2023-07-13T06:48:21;19.50;56.60
20057;DHT22;10189;49.546;7.906;2023-07-13T06:50:49;19.70;55.60
20057;DHT22;10189;49.546;7.906;2023-07-13T06:53:17;19.70;56.20
20057;DHT22;10189;49.546;7.906;2023-07-13T06:55:44;19.60;55.70
20057;DHT22;10189;49.546;7.906;2023-07-13T06:58:11;19.60;57.00
20057;DHT22;10189;49.546;7.906;2023-07-13T07:00:37;19.60;58.10
20057;DHT22;10189;49.546;7.906;2023-07-13T07:03:05;19.70;57.90
20057;DHT22;10189;49.546;7.906;2023-07-13T07:05:31;19.80;56.30
20057;DHT22;10189;49.546;7.906;2023-07-13T07:07:58;19.90;57.00
20057;DHT22;10189;49.546;7.906;2023-07-13T07:10:24;20.00;57.70
20057;DHT22;10189;49.546;7.906;2023-07-13T07:12:50;20.30;57.00
20057;DHT22;10189;49.546;7.906;2023-07-13T07:15:17;20.30;56.40
20057;DHT22;10189;49.546;7.906;2023-07-13T07:17:44;20.00;56.20
20057;DHT22;10189;49.546;7.906;2023-07-13T07:20:10;20.10;57.40
20057;DHT22;10189;49.546;7.906;2023-07-13T07:22:36;20.20;58.40
20057;DHT22;10189;49.546;7.906;2023-07-13T07:25:02;20.40;57.90
20057;DHT22;10189;49.546;7.906;2023-07-13T07:27:29;20.70;57.30
20057;DHT22;10189;49.546;7.906;2023-07-13T07:29:54;20.80;55.50
20057;DHT22;10189;49.546;7.906;2023-07-13T07:32:20;21.00;54.10
20057;DHT22;10189;49.546;7.906;2023-07-13T07:34:46;21.10;54.70
20057;DHT22;10189;49.546;7.906;2023-07-13T07:37:13;21.30;52.50
20057;DHT22;10189;49.546;7.906;2023-07-13T07:39:39;21.40;52.50
20057;DHT22;10189;49.546;7.906;2023-07-13T07:42:06;21.60;54.90
20057;DHT22;10189;49.546;7.906;2023-07-13T07:44:32;21.70;54.00
20057;DHT22;10189;49.546;7.906;2023-07-13T07:46:59;21.80;54.00
20057;DHT22;10189;49.546;7.906;2023-07-13T07:49:25;21.80;54.80
20057;DHT22;10189;49.546;7.906;2023-07-13T07:51:51;21.80;53.70
20057;DHT22;10189;49.546;7.906;2023-07-13T07:54:17;22.00;52.40
20057;DHT22;10189;49.546;7.906;2023-07-13T07:56:43;22.20;51.10
20057;DHT22;10189;49.546;7.906;2023-07-13T07:59:09;22.10;51.50
20057;DHT22;10189;49.546;7.906;2023-07-13T08:01:36;22.20;52.90
20057;DHT22;10189;49.546;7.906;2023-07-13T08:04:02;22.40;50.50
20057;DHT22;10189;49.546;7.906;2023-07-13T08:06:28;22.20;49.80
20057;DHT22;10189;49.546;7.906;2023-07-13T08:08:55;22.20;49.20
20057;DHT22;10189;49.546;7.906;2023-07-13T08:11:22;22.20;50.50
20057;DHT22;10189;49.546;7.906;2023-07-13T08:13:49;22.20;51.10
20057;DHT22;10189;49.546;7.906;2023-07-13T08:16:15;22.30;50.10
20057;DHT22;10189;49.546;7.906;2023-07-13T08:18:42;22.20;49.60
20057;DHT22;10189;49.546;7.906;2023-07-13T08:21:08;22.00;49.60
20057;DHT22;10189;49.546;7.906;2023-07-13T08:23:35;21.80;50.90
20057;DHT22;10189;49.546;7.906;2023-07-13T08:26:02;21.80;49.80
20057;DHT22;10189;49.546;7.906;2023-07-13T08:28:30;21.90;50.90
20057;DHT22;10189;49.546;7.906;2023-07-13T08:31:05;22.00;50.80
20057;DHT22;10189;49.546;7.906;2023-07-13T08:33:34;22.00;50.50
20057;DHT22;10189;49.546;7.906;2023-07-13T08:36:02;22.00;51.50
20057;DHT22;10189;49.546;7.906;2023-07-13T08:38:28;22.20;49.80
20057;DHT22;10189;49.546;7.906;2023-07-13T08:40:55;22.20;50.10
20057;DHT22;10189;49.546;7.906;2023-07-13T08:43:30;22.30;50.60
20057;DHT22;10189;49.546;7.906;2023-07-13T08:48:53;22.60;49.60
20057;DHT22;10189;49.546;7.906;2023-07-13T08:56:53;23.20;48.70
20057;DHT22;10189;49.546;7.906;2023-07-13T08:59:26;23.50;48.80
20057;DHT22;10189;49.546;7.906;2023-07-13T09:04:47;23.30;50.10
20057;DHT22;10189;49.546;7.906;2023-07-13T09:10:44;23.30;46.50
20057;DHT22;10189;49.546;7.906;2023-07-13T09:16:05;23.30;48.20
20057;DHT22;10189;49.546;7.906;2023-07-13T09:18:37;23.60;49.70
20057;DHT22;10189;49.546;7.906;2023-07-13T09:21:10;24.00;47.20
20057;DHT22;10189;49.546;7.906;2023-07-13T09:23:41;24.10;46.20
20057;DHT22;10189;49.546;7.906;2023-07-13T09:26:19;24.40;46.00
20057;DHT22;10189;49.546;7.906;2023-07-13T09:28:49;24.30;46.20
20057;DHT22;10189;49.546;7.906;2023-07-13T09:31:28;24.10;45.90
20057;DHT22;10189;49.546;7.906;2023-07-13T09:34:00;23.80;45.50
20057;DHT22;10189;49.546;7.906;2023-07-13T09:36:29;23.80;46.10
20057;DHT22;10189;49.546;7.906;2023-07-13T09:41:41;23.80;46.80
20057;DHT22;10189;49.546;7.906;2023-07-13T09:44:18;23.90;44.60
20057;DHT22;10189;49.546;7.906;2023-07-13T09:46:57;24.10;45.00
20057;DHT22;10189;49.546;7.906;2023-07-13T09:49:29;24.00;45.50
20057;DHT22;10189;49.546;7.906;2023-07-13T09:52:04;23.80;43.70
20057;DHT22;10189;49.546;7.906;2023-07-13T09:54:34;23.90;46.30
20057;DHT22;10189;49.546;7.906;2023-07-13T09:57:04;24.10;43.50
20057;DHT22;10189;49.546;7.906;2023-07-13T09:59:44;24.10;45.40
20057;DHT22;10189;49.546;7.906;2023-07-13T10:05:16;23.90;43.10
20057;DHT22;10189;49.546;7.906;2023-07-13T10:07:45;23.60;44.80
20057;DHT22;10189;49.546;7.906;2023-07-13T10:10:18;23.50;45.00
20057;DHT22;10189;49.546;7.906;2023-07-13T10:12:49;23.60;42.40
20057;DHT22;10189;49.546;7.906;2023-07-13T10:15:24;23.40;44.10
20057;DHT22;10189;49.546;7.906;2023-07-13T10:17:53;23.50;43.10
20057;DHT22;10189;49.546;7.906;2023-07-13T10:20:21;23.80;42.90
20057;DHT22;10189;49.546;7.906;2023-07-13T10:22:59;23.90;42.60
20057;DHT22;10189;49.546;7.906;2023-07-13T10:25:32;23.90;44.00
20057;DHT22;10189;49.546;7.906;2023-07-13T10:30:56;23.70;44.00
20057;DHT22;10189;49.546;7.906;2023-07-13T10:33:26;23.70;44.50
20057;DHT22;10189;49.546;7.906;2023-07-13T10:35:57;23.70;44.10
20057;DHT22;10189;49.546;7.906;2023-07-13T10:38:39;23.50;42.60
20057;DHT22;10189;49.546;7.906;2023-07-13T10:41:11;23.70;42.30
20057;DHT22;10189;49.546;7.906;2023-07-13T10:43:46;24.00;42.00
20057;DHT22;10189;49.546;7.906;2023-07-13T10:46:19;23.90;41.80
20057;DHT22;10189;49.546;7.906;2023-07-13T10:48:52;23.60;42.10
20057;DHT22;10189;49.546;7.906;2023-07-13T10:51:22;23.50;42.90
20057;DHT22;10189;49.546;7.906;2023-07-13T10:54:15;23.50;41.10
20057;DHT22;10189;49.546;7.906;2023-07-13T10:56:50;23.40;40.90
20057;DHT22;10189;49.546;7.906;2023-07-13T10:59:25;23.40;40.90
20057;DHT22;10189;49.546;7.906;2023-07-13T11:02:11;23.40;40.00
20057;DHT22;10189;49.546;7.906;2023-07-13T11:04:46;23.50;41.50
20057;DHT22;10189;49.546;7.906;2023-07-13T11:07:27;23.60;40.80
20057;DHT22;10189;49.546;7.906;2023-07-13T11:09:57;24.20;41.20
20057;DHT22;10189;49.546;7.906;2023-07-13T11:20:35;24.10;40.80
20057;DHT22;10189;49.546;7.906;2023-07-13T11:25:38;24.90;40.70
20057;DHT22;10189;49.546;7.906;2023-07-13T11:33:49;24.70;41.80
20057;DHT22;10189;49.546;7.906;2023-07-13T11:36:21;25.10;41.50
20057;DHT22;10189;49.546;7.906;2023-07-13T11:39:01;25.00;40.40
20057;DHT22;10189;49.546;7.906;2023-07-13T11:41:43;24.70;41.50
20057;DHT22;10189;49.546;7.906;2023-07-13T11:44:14;24.60;41.20
20057;DHT22;10189;49.546;7.906;2023-07-13T11:46:53;25.00;40.20
20057;DHT22;10189;49.546;7.906;2023-07-13T11:49:23;25.40;39.90
20057;DHT22;10189;49.546;7.906;2023-07-13T11:51:51;25.50;39.40
20057;DHT22;10189;49.546;7.906;2023-07-13T11:56:49;24.90;38.80
20057;DHT22;10189;49.546;7.906;2023-07-13T11:59:16;24.40;39.50
20057;DHT22;10189;49.546;7.906;2023-07-13T12:01:46;24.20;40.00
20057;DHT22;10189;49.546;7.906;2023-07-13T12:04:31;23.70;40.90
20057;DHT22;10189;49.546;7.906;2023-07-13T12:07:05;23.80;41.20
20057;DHT22;10189;49.546;7.906;2023-07-13T12:09:32;23.80;42.20
20057;DHT22;10189;49.546;7.906;2023-07-13T12:11:59;23.80;41.20
20057;DHT22;10189;49.546;7.906;2023-07-13T12:14:28;23.80;41.80
20057;DHT22;10189;49.546;7.906;2023-07-13T12:16:55;24.00;41.10
20057;DHT22;10189;49.546;7.906;2023-07-13T12:19:28;24.40;40.40
20057;DHT22;10189;49.546;7.906;2023-07-13T12:21:58;24.50;40.50
20057;DHT22;10189;49.546;7.906;2023-07-13T12:24:25;24.40;40.00
20057;DHT22;10189;49.546;7.906;2023-07-13T12:27:02;24.30;41.70
20057;DHT22;10189;49.546;7.906;2023-07-13T12:29:32;24.70;41.30
20057;DHT22;10189;49.546;7.906;2023-07-13T12:31:58;25.10;41.40
20057;DHT22;10189;49.546;7.906;2023-07-13T12:34:26;25.40;40.30
20057;DHT22;10189;49.546;7.906;2023-07-13T12:36:58;25.40;39.30
20057;DHT22;10189;49.546;7.906;2023-07-13T12:39:45;25.10;39.40
20057;DHT22;10189;49.546;7.906;2023-07-13T12:45:20;24.60;40.30
20057;DHT22;10189;49.546;7.906;2023-07-13T12:47:53;24.00;40.00
20057;DHT22;10189;49.546;7.906;2023-07-13T12:50:34;23.50;41.20
20057;DHT22;10189;49.546;7.906;2023-07-13T12:53:05;23.60;41.50
20057;DHT22;10189;49.546;7.906;2023-07-13T12:55:47;23.70;41.00
20057;DHT22;10189;49.546;7.906;2023-07-13T12:59:01;23.90;40.30
20057;DHT22;10189;49.546;7.906;2023-07-13T13:01:10;24.20;39.30
20057;DHT22;10189;49.546;7.906;2023-07-13T13:03:40;24.00;40.20
20057;DHT22;10189;49.546;7.906;2023-07-13T13:08:46;23.70;41.20
20057;DHT22;10189;49.546;7.906;2023-07-13T13:11:18;23.80;41.40
20057;DHT22;10189;49.546;7.906;2023-07-13T13:13:45;24.10;40.40
20057;DHT22;10189;49.546;7.906;2023-07-13T13:18:54;24.60;41.40
20057;DHT22;10189;49.546;7.906;2023-07-13T13:21:23;24.70;39.70
20057;DHT22;10189;49.546;7.906;2023-07-13T13:23:50;24.80;40.70
20057;DHT22;10189;49.546;7.906;2023-07-13T13:26:18;25.10;39.20
20057;DHT22;10189;49.546;7.906;2023-07-13T13:28:46;25.00;39.80
20057;DHT22;10189;49.546;7.906;2023-07-13T13:31:16;25.10;38.30
20057;DHT22;10189;49.546;7.906;2023-07-13T13:33:43;24.90;38.20
20057;DHT22;10189;49.546;7.906;2023-07-13T13:36:19;25.20;39.00
20057;DHT22;10189;49.546;7.906;2023-07-13T13:38:48;25.40;36.50
20057;DHT22;10189;49.546;7.906;2023-07-13T13:41:16;25.70;36.40
20057;DHT22;10189;49.546;7.906;2023-07-13T13:43:43;25.20;35.90
20057;DHT22;10189;49.546;7.906;2023-07-13T13:46:17;25.00;38.10
20057;DHT22;10189;49.546;7.906;2023-07-13T13:48:45;25.00;38.40
20057;DHT22;10189;49.546;7.906;2023-07-13T13:51:24;24.90;36.60
20057;DHT22;10189;49.546;7.906;2023-07-13T13:53:50;24.40;37.90
20057;DHT22;10189;49.546;7.906;2023-07-13T13:56:18;24.20;38.10
20057;DHT22;10189;49.546;7.906;2023-07-13T13:58:45;24.10;38.20
20057;DHT22;10189;49.546;7.906;2023-07-13T14:01:20;24.10;38.10
20057;DHT22;10189;49.546;7.906;2023-07-13T14:03:48;24.30;37.80
20057;DHT22;10189;49.546;7.906;2023-07-13T14:06:17;24.30;38.10
20057;DHT22;10189;49.546;7.906;2023-07-13T14:08:43;24.40;38.40
20057;DHT22;10189;49.546;7.906;2023-07-13T14:11:17;24.40;38.50
20057;DHT22;10189;49.546;7.906;2023-07-13T14:13:48;24.50;38.40
20057;DHT22;10189;49.546;7.906;2023-07-13T14:16:18;24.60;38.80
20057;DHT22;10189;49.546;7.906;2023-07-13T14:18:47;24.80;38.90
20057;DHT22;10189;49.546;7.906;2023-07-13T14:21:19;24.80;39.60
20057;DHT22;10189;49.546;7.906;2023-07-13T14:23:47;24.60;40.60
20057;DHT22;10189;49.546;7.906;2023-07-13T14:26:19;24.70;41.20
20057;DHT22;10189;49.546;7.906;2023-07-13T14:28:51;24.60;40.30
20057;DHT22;10189;49.546;7.906;2023-07-13T14:31:21;24.60;40.00
20057;DHT22;10189;49.546;7.906;2023-07-13T14:33:49;24.30;40.90
20057;DHT22;10189;49.546;7.906;2023-07-13T14:36:23;24.10;40.60
20057;DHT22;10189;49.546;7.906;2023-07-13T14:38:57;24.00;41.30
20057;DHT22;10189;49.546;7.906;2023-07-13T14:41:24;23.80;41.70
20057;DHT22;10189;49.546;7.906;2023-07-13T14:43:51;23.90;41.30
20057;DHT22;10189;49.546;7.906;2023-07-13T14:46:35;23.90;41.60
20057;DHT22;10189;49.546;7.906;2023-07-13T14:52:02;24.60;40.50
20057;DHT22;10189;49.546;7.906;2023-07-13T14:54:34;24.30;40.10
20057;DHT22;10189;49.546;7.906;2023-07-13T14:56:59;24.50;40.00
20057;DHT22;10189;49.546;7.906;2023-07-13T14:59:26;24.30;39.10
20057;DHT22;10189;49.546;7.906;2023-07-13T15:01:52;24.20;39.90
20057;DHT22;10189;49.546;7.906;2023-07-13T15:04:18;24.30;40.10
20057;DHT22;10189;49.546;7.906;2023-07-13T15:07:01;24.50;40.70
20057;DHT22;10189;49.546;7.906;2023-07-13T15:09:28;24.70;39.20
20057;DHT22;10189;49.546;7.906;2023-07-13T15:11:55;24.60;40.10
20057;DHT22;10189;49.546;7.906;2023-07-13T15:14:22;24.50;40.60
20057;DHT22;10189;49.546;7.906;2023-07-13T15:16:51;24.50;40.90
20057;DHT22;10189;49.546;7.906;2023-07-13T15:19:19;24.60;40.10
20057;DHT22;10189;49.546;7.906;2023-07-13T15:21:47;24.60;39.10
20057;DHT22;10189;49.546;7.906;2023-07-13T15:24:14;24.70;39.60
20057;DHT22;10189;49.546;7.906;2023-07-13T15:26:42;24.70;39.50
20057;DHT22;10189;49.546;7.906;2023-07-13T15:29:11;25.00;39.30
20057;DHT22;10189;49.546;7.906;2023-07-13T15:31:38;24.90;37.80
20057;DHT22;10189;49.546;7.906;2023-07-13T15:34:11;24.90;38.20
20057;DHT22;10189;49.546;7.906;2023-07-13T15:36:42;24.90;39.90
20057;DHT22;10189;49.546;7.906;2023-07-13T15:39:15;25.00;39.90
20057;DHT22;10189;49.546;7.906;2023-07-13T15:41:42;25.20;38.10
20057;DHT22;10189;49.546;7.906;2023-07-13T15:44:26;24.90;37.40
20057;DHT22;10189;49.546;7.906;2023-07-13T15:46:57;24.60;38.30
20057;DHT22;10189;49.546;7.906;2023-07-13T15:49:25;24.80;39.40
20057;DHT22;10189;49.546;7.906;2023-07-13T15:51:52;24.80;38.30
20057;DHT22;10189;49.546;7.906;2023-07-13T15:54:19;24.80;39.20
20057;DHT22;10189;49.546;7.906;2023-07-13T15:56:51;24.90;39.10
20057;DHT22;10189;49.546;7.906;2023-07-13T15:59:19;25.10;38.40
20057;DHT22;10189;49.546;7.906;2023-07-13T16:01:45;25.40;38.10
20057;DHT22;10189;49.546;7.906;2023-07-13T16:04:14;25.40;37.10
20057;DHT22;10189;49.546;7.906;2023-07-13T16:06:41;25.30;36.40
20057;DHT22;10189;49.546;7.906;2023-07-13T16:09:20;25.50;36.30
20057;DHT22;10189;49.546;7.906;2023-07-13T16:11:47;25.50;36.10
20057;DHT22;10189;49.546;7.906;2023-07-13T16:14:15;26.20;35.90
20057;DHT22;10189;49.546;7.906;2023-07-13T16:16:42;26.30;34.80
20057;DHT22;10189;49.546;7.906;2023-07-13T16:19:09;26.30;35.00
20057;DHT22;10189;49.546;7.906;2023-07-13T16:21:42;26.40;35.20
20057;DHT22;10189;49.546;7.906;2023-07-13T16:24:19;25.70;36.10
20057;DHT22;10189;49.546;7.906;2023-07-13T16:26:48;25.50;37.50
20057;DHT22;10189;49.546;7.906;2023-07-13T16:32:01;24.70;37.70
20057;DHT22;10189;49.546;7.906;2023-07-13T16:34:32;24.40;38.40
20057;DHT22;10189;49.546;7.906;2023-07-13T16:37:09;24.30;39.10
20057;DHT22;10189;49.546;7.906;2023-07-13T16:39:44;24.60;38.50
20057;DHT22;10189;49.546;7.906;2023-07-13T16:42:13;24.80;38.30
20057;DHT22;10189;49.546;7.906;2023-07-13T16:44:38;25.20;37.70